Etusivu
METAR-TAF:

METAR-TAF

Lentoasemat :

Tsushima, Japani

Leveyspiiri: 34-17N, Pituuspiiri: 129-20E, korkeus merenpinnasta: 63 m

Tämänhetkinen sää

Tämä raportti tehtiin 1 tunti ja 12 minuuttia sitten, kello 11.00 UTC
Tuuli 2 kn eri suunnista
Lämpötila 14°C
Kosteus 58%
Ilmanpaine 1015 hPa
Näkyvyys 10 km tai enemmän
Muutamia pilviä 3000 ft:n korkeudessa
Hajanaisia pilviä 6000 ft:n korkeudessa
Hajonneita pilviä 8000 ft:n korkeudessa

METAR: RJDT 131100Z VRB02KT 9999 FEW030 SCT060 BKN080 14/06 Q1015

Aika: 21:12 (12:12 UTC)


TAF: puuttuu

Säähavainnot ja -ennusteet yli 4000 lentoasemalta (METAR- ja TAF-raportit).

Käytössä olevat sääasemat on merkitty karttaan keltaisilla ja punaisilla pisteillä.

Aseta hiiri pisteen päälle nähdäksesi sääaseman nimen.

Klikkaa sitten nähdäksesi säähavainnot ja -ennusteet.

Kartan vaihtaminen: klikkaa mustalla rastilla varustettuja vihreitä pisteitä, niin voit zoomata sisään; viivalla varustettua vihreää pistettä, niin voit zoomata ulos tai vihreitä nuolia, niin pääset viereisille kartoille.


METAR-TAF: